Main page
METAR-TAF:

METAR-TAF

Airports :

St Mary's Airport

Isles of Scilly, England

latitude: 49-55N, longitude: 006-18W, elevation: 31 m

Current weather observation

The report was made 12 hours and 18 minutes ago, at 15:20 UTC
Wind 19 kt from the West/Southwest
Temperature 17°C
Humidity 100%
Pressure 1009 hPa
Visibility: 1500 m
Scattered clouds at a height lower than 100 ft
Overcast at a height of 100 ft
drizzle, mist

METAR: EGHE 221520Z 24019KT 1500 DZ BR SCT000 OVC001 17/17 Q1009

Time: 04:38 (03:38 UTC)

Forecast

The report was made 12 hours and 33 minutes ago, at 15:05 UTC
Forecast valid from 22 at 15 UTC to 22 at 18 UTC
Wind 20 kt from the Southwest
Visibility: 4000 m
Broken clouds at a height of 400 ft
light drizzle
Probability 40% :
Temporary
from 22 at 15 UTC to 22 at 18 UTC
Wind 20 kt from the West/Southwest with gusts up to 30 kt
Visibility: 0700 m
Broken clouds at a height of 100 ft
drizzle, fog

TAF: EGHE 221505Z 2215/2218 23020KT 4000 -DZ BKN004 PROB40 TEMPO 2215/2218 24020G30KT 0700 DZ FG BKN001

Weather observations and forecasts of more than 4000 airports (METAR and TAF reports).

The available stations are represented by yellow and red dots on the map.

Hover mouse over dot to see the name of the station.

Then click to see weather observations and forecasts.

To change the map : click on the green buttons with a black cross to zoom in, on the green button with a dash to zoom out, or on the green arrows for adjacent maps.


METAR-TAF: